createdAt,value
2023-04-18T00:01:54.972Z,6.00
2023-04-18T00:04:22.904Z,7.07
2023-04-18T00:06:51.854Z,6.60
2023-04-18T00:09:19.770Z,6.30
2023-04-18T00:11:47.543Z,5.55
2023-04-18T00:14:15.569Z,9.85
2023-04-18T00:16:43.606Z,6.60
2023-04-18T00:19:14.217Z,6.47
2023-04-18T00:21:44.837Z,13.60
2023-04-18T00:24:12.868Z,6.45
2023-04-18T00:26:40.912Z,6.60
2023-04-18T00:29:08.707Z,6.32
2023-04-18T00:31:36.454Z,6.43
2023-04-18T00:34:04.274Z,6.75
2023-04-18T00:36:33.460Z,7.40
2023-04-18T00:39:01.184Z,9.82
2023-04-18T00:41:29.016Z,5.75
2023-04-18T00:43:56.936Z,6.43
2023-04-18T00:46:24.864Z,7.90
2023-04-18T00:48:52.796Z,6.13
2023-04-18T00:51:21.341Z,8.00
2023-04-18T00:53:51.731Z,6.57
2023-04-18T00:56:19.542Z,6.60
2023-04-18T00:58:47.370Z,6.18
2023-04-18T01:01:15.156Z,6.22
2023-04-18T01:03:43.289Z,7.60
2023-04-18T01:06:11.667Z,7.90
2023-04-18T01:08:39.580Z,6.50
2023-04-18T01:11:08.780Z,7.20
2023-04-18T01:13:36.577Z,7.25
2023-04-18T01:16:04.661Z,7.22
2023-04-18T01:18:32.532Z,7.93
2023-04-18T01:21:00.869Z,8.68
2023-04-18T01:23:28.742Z,7.32
2023-04-18T01:25:57.926Z,7.45
2023-04-18T01:28:27.790Z,8.68
2023-04-18T01:30:55.851Z,7.53
2023-04-18T01:33:23.586Z,8.57
2023-04-18T01:35:51.542Z,7.95
2023-04-18T01:38:19.313Z,7.07
2023-04-18T01:40:47.035Z,7.15
2023-04-18T01:43:16.321Z,7.82
2023-04-18T01:45:43.962Z,6.93
2023-04-18T01:48:11.741Z,8.05
2023-04-18T01:50:39.510Z,7.43
2023-04-18T01:53:07.650Z,7.97
2023-04-18T01:55:35.559Z,9.07
2023-04-18T01:58:03.302Z,8.38
2023-04-18T02:00:32.462Z,7.65
2023-04-18T02:03:00.652Z,6.95
2023-04-18T02:05:28.543Z,7.72
2023-04-18T02:07:56.216Z,7.03
2023-04-18T02:10:24.537Z,8.02
2023-04-18T02:12:52.316Z,8.60
2023-04-18T02:15:20.551Z,7.47
2023-04-18T02:17:50.546Z,8.02
2023-04-18T02:20:18.319Z,7.85
2023-04-18T02:22:47.785Z,11.13
2023-04-18T02:25:15.497Z,9.85
2023-04-18T02:27:43.225Z,8.10
2023-04-18T02:30:11.433Z,8.75
2023-04-18T02:32:39.179Z,8.73
2023-04-18T02:35:09.176Z,9.25
2023-04-18T02:37:36.935Z,9.50
2023-04-18T02:40:05.645Z,9.02
2023-04-18T02:42:33.370Z,8.38
2023-04-18T02:45:01.140Z,8.75
2023-04-18T02:47:30.364Z,10.55
2023-04-18T02:49:59.525Z,13.15
2023-04-18T02:52:28.752Z,8.85
2023-04-18T02:54:56.624Z,8.52
2023-04-18T02:57:24.329Z,8.98
2023-04-18T02:59:52.124Z,9.68
2023-04-18T03:02:20.943Z,10.00
2023-04-18T03:04:48.915Z,9.00
2023-04-18T03:07:16.774Z,10.45
2023-04-18T03:09:46.231Z,9.18
2023-04-18T03:12:14.020Z,11.50
2023-04-18T03:14:41.790Z,12.20
2023-04-18T03:17:09.607Z,10.57
2023-04-18T03:19:37.494Z,9.15
2023-04-18T03:22:06.148Z,11.77
2023-04-18T03:24:33.869Z,9.30
2023-04-18T03:27:03.071Z,9.25
2023-04-18T03:29:31.090Z,10.55
2023-04-18T03:31:58.928Z,11.73
2023-04-18T03:34:26.769Z,8.85
2023-04-18T03:36:55.227Z,15.30
2023-04-18T03:39:23.259Z,11.65
2023-04-18T03:41:52.166Z,10.25
2023-04-18T03:44:21.264Z,11.02
2023-04-18T03:46:49.007Z,31.55
2023-04-18T03:49:16.680Z,12.77
2023-04-18T03:51:47.576Z,11.13
2023-04-18T03:54:15.584Z,11.27
2023-04-18T03:56:43.606Z,10.05
2023-04-18T03:59:12.040Z,10.05
2023-04-18T04:01:41.256Z,10.48
2023-04-18T04:04:12.197Z,10.50
2023-04-18T04:06:40.334Z,10.60
2023-04-18T04:09:08.358Z,11.68
2023-04-18T04:11:36.557Z,12.77
2023-04-18T04:14:04.492Z,10.48
2023-04-18T04:16:32.537Z,14.00
2023-04-18T04:19:01.748Z,18.75
2023-04-18T04:21:31.355Z,11.10
2023-04-18T04:23:59.354Z,12.88
2023-04-18T04:26:27.755Z,11.15
2023-04-18T04:28:55.566Z,11.55
2023-04-18T04:31:23.456Z,15.45
2023-04-18T04:33:51.279Z,33.40
2023-04-18T04:36:22.921Z,14.27
2023-04-18T04:38:50.714Z,10.40
2023-04-18T04:41:18.520Z,13.50
2023-04-18T04:43:47.028Z,11.50
2023-04-18T04:46:15.514Z,11.90
2023-04-18T04:48:43.227Z,10.75
2023-04-18T04:51:11.056Z,10.65
2023-04-18T04:53:40.195Z,10.88
2023-04-18T04:56:09.296Z,10.65
2023-04-18T04:58:37.024Z,10.57
2023-04-18T05:01:07.918Z,11.80
2023-04-18T05:03:36.519Z,11.57
2023-04-18T05:06:04.855Z,12.43
2023-04-18T05:08:32.820Z,14.23
2023-04-18T05:11:02.839Z,12.75
2023-04-18T05:13:33.737Z,10.88
2023-04-18T05:16:02.922Z,11.02
2023-04-18T05:18:33.008Z,11.70
2023-04-18T05:21:02.256Z,10.45
2023-04-18T05:23:30.471Z,13.18
2023-04-18T05:25:58.294Z,12.05
2023-04-18T05:28:27.528Z,11.40
2023-04-18T05:31:01.089Z,18.15
2023-04-18T05:33:29.104Z,13.00
2023-04-18T05:35:57.727Z,13.55
2023-04-18T05:38:25.759Z,11.68
2023-04-18T05:40:55.562Z,11.48
2023-04-18T05:43:23.713Z,12.88
2023-04-18T05:45:54.283Z,12.63
2023-04-18T05:50:53.091Z,12.40
2023-04-18T05:53:20.908Z,13.45
2023-04-18T05:55:48.959Z,12.95
2023-04-18T05:58:16.818Z,18.65
2023-04-18T06:00:45.074Z,16.20
2023-04-18T06:03:14.268Z,11.35
2023-04-18T06:05:42.343Z,12.27
2023-04-18T06:08:10.365Z,12.18
2023-04-18T06:10:39.190Z,14.88
2023-04-18T06:13:07.125Z,12.95
2023-04-18T06:15:36.316Z,13.48
2023-04-18T06:18:04.157Z,13.57
2023-04-18T06:20:33.313Z,15.70
2023-04-18T06:23:01.060Z,12.90
2023-04-18T06:25:28.910Z,11.57
2023-04-18T06:27:56.678Z,16.13
2023-04-18T06:30:24.807Z,13.43
2023-04-18T06:32:52.649Z,13.20
2023-04-18T06:35:20.539Z,14.05
2023-04-18T06:37:50.998Z,16.48
2023-04-18T06:40:18.942Z,14.35
2023-04-18T06:42:46.764Z,13.00
2023-04-18T06:45:14.537Z,15.90
2023-04-18T06:47:42.535Z,14.32
2023-04-18T06:50:10.908Z,13.40
2023-04-18T06:52:40.770Z,12.95
2023-04-18T06:55:10.424Z,13.32
2023-04-18T06:57:38.177Z,15.82
2023-04-18T07:00:07.072Z,30.30
2023-04-18T07:02:36.671Z,29.90
2023-04-18T07:05:05.077Z,21.08
2023-04-18T07:07:33.992Z,15.40
2023-04-18T07:10:02.130Z,15.70
2023-04-18T07:12:31.432Z,15.85
2023-04-18T07:14:59.305Z,19.05
2023-04-18T07:17:29.550Z,15.15
2023-04-18T07:19:57.695Z,17.70
2023-04-18T07:22:25.462Z,16.83
2023-04-18T07:24:53.368Z,17.08
2023-04-18T07:27:21.099Z,14.30
2023-04-18T07:29:50.234Z,15.55
2023-04-18T07:32:18.177Z,15.75
2023-04-18T07:34:46.184Z,16.30
2023-04-18T07:37:15.191Z,15.15
2023-04-18T07:39:43.204Z,17.58
2023-04-18T07:42:11.355Z,15.48
2023-04-18T07:44:39.270Z,16.17
2023-04-18T07:47:11.153Z,14.30
2023-04-18T07:49:39.446Z,16.90
2023-04-18T07:52:07.322Z,15.40
2023-04-18T07:54:35.047Z,16.40
2023-04-18T07:57:02.817Z,15.40
2023-04-18T07:59:32.179Z,13.35
2023-04-18T08:02:00.052Z,15.68
2023-04-18T08:04:30.448Z,15.43
2023-04-18T08:06:58.491Z,20.75
2023-04-18T08:09:26.242Z,15.35
2023-04-18T08:11:55.206Z,15.10
2023-04-18T08:14:23.023Z,13.57
2023-04-18T08:16:50.823Z,17.73
2023-04-18T08:19:18.616Z,15.15
2023-04-18T08:21:47.773Z,14.55
2023-04-18T08:24:15.578Z,18.90
2023-04-18T08:26:43.303Z,16.73
2023-04-18T08:29:11.716Z,14.43
2023-04-18T08:31:40.196Z,17.75
2023-04-18T08:34:08.079Z,14.93
2023-04-18T08:36:36.257Z,14.05
2023-04-18T08:39:06.307Z,14.50
2023-04-18T08:41:38.607Z,16.40
2023-04-18T08:44:07.784Z,14.80
2023-04-18T08:46:37.136Z,17.05
2023-04-18T08:49:05.048Z,20.30
2023-04-18T08:51:34.249Z,21.92
2023-04-18T08:54:04.575Z,21.77
2023-04-18T08:56:33.754Z,21.13
2023-04-18T08:59:01.435Z,20.00
2023-04-18T09:01:52.404Z,15.52
2023-04-18T09:04:35.432Z,16.77
2023-04-18T09:07:04.019Z,14.70
2023-04-18T09:09:48.257Z,20.80
2023-04-18T09:12:19.581Z,22.05
2023-04-18T09:14:48.791Z,15.70
2023-04-18T09:17:21.864Z,12.80
2023-04-18T09:19:50.409Z,13.23
2023-04-18T09:22:18.869Z,8.77
2023-04-18T09:24:54.300Z,7.70
2023-04-18T09:27:23.716Z,8.95
2023-04-18T09:29:52.932Z,9.55
2023-04-18T09:32:25.117Z,15.00
2023-04-18T09:34:58.295Z,13.63
2023-04-18T09:37:27.281Z,17.08
2023-04-18T09:39:55.676Z,16.40
2023-04-18T09:42:27.483Z,18.65
2023-04-18T09:45:01.951Z,17.70
2023-04-18T09:47:29.848Z,15.82
2023-04-18T09:49:57.717Z,16.58
2023-04-18T09:52:26.752Z,15.80
2023-04-18T09:54:59.199Z,16.75
2023-04-18T09:57:31.229Z,12.45
2023-04-18T10:00:10.634Z,16.38
2023-04-18T10:02:49.328Z,23.02
2023-04-18T10:05:20.790Z,14.85
2023-04-18T10:07:50.695Z,13.75
2023-04-18T10:10:19.061Z,13.98
2023-04-18T10:12:50.734Z,14.00
2023-04-18T10:15:21.265Z,14.93
2023-04-18T10:18:04.486Z,12.98
2023-04-18T10:20:35.950Z,11.98
2023-04-18T10:23:35.697Z,12.25
2023-04-18T10:26:04.164Z,12.20
2023-04-18T10:28:56.724Z,11.23
2023-04-18T10:31:26.355Z,10.73
2023-04-18T10:39:00.575Z,12.52
2023-04-18T10:41:29.962Z,10.88
2023-04-18T10:44:19.558Z,13.02
2023-04-18T10:47:23.054Z,10.98
2023-04-18T10:50:01.607Z,9.93
2023-04-18T10:52:30.387Z,9.23
2023-04-18T10:55:27.490Z,10.60
2023-04-18T10:57:58.762Z,11.15
2023-04-18T11:00:29.209Z,14.93
2023-04-18T11:02:57.920Z,13.88
2023-04-18T11:05:27.723Z,11.15
2023-04-18T11:07:56.288Z,12.35
2023-04-18T11:10:25.623Z,11.73
2023-04-18T11:12:54.284Z,12.77
2023-04-18T11:15:23.894Z,13.68
2023-04-18T11:18:00.899Z,20.65
2023-04-18T11:20:29.436Z,13.25
2023-04-18T11:22:59.259Z,11.57
2023-04-18T11:25:30.287Z,10.68
2023-04-18T11:28:00.905Z,11.73
2023-04-18T11:30:31.374Z,10.18
2023-04-18T11:33:00.618Z,12.25
2023-04-18T11:35:28.457Z,13.38
2023-04-18T11:37:56.315Z,14.95
2023-04-18T11:40:24.441Z,10.98
2023-04-18T11:42:55.392Z,13.02
2023-04-18T11:45:23.266Z,10.25
2023-04-18T11:47:58.203Z,12.77
2023-04-18T11:50:28.191Z,12.60
2023-04-18T11:52:56.937Z,9.98
2023-04-18T11:55:27.216Z,9.07
2023-04-18T11:57:56.763Z,11.57
2023-04-18T12:00:33.633Z,9.65
2023-04-18T12:03:02.863Z,10.05
2023-04-18T12:05:33.622Z,9.55
2023-04-18T12:08:09.439Z,9.63
2023-04-18T12:10:38.478Z,9.52
2023-04-18T12:13:09.070Z,7.40
2023-04-18T12:15:40.233Z,10.02
2023-04-18T12:18:09.342Z,8.23
2023-04-18T12:20:46.285Z,6.45
2023-04-18T12:23:30.727Z,6.93
2023-04-18T12:26:03.426Z,6.03
2023-04-18T12:28:31.964Z,8.48
2023-04-18T12:31:00.103Z,5.75
2023-04-18T12:33:27.994Z,7.03
2023-04-18T12:35:57.449Z,6.00
2023-04-18T12:38:25.607Z,6.30
2023-04-18T12:40:54.059Z,6.25
2023-04-18T12:43:21.850Z,6.50
2023-04-18T12:45:50.908Z,7.05
2023-04-18T12:48:19.114Z,7.00
2023-04-18T12:50:46.861Z,8.20
2023-04-18T12:53:16.000Z,7.45
2023-04-18T12:55:44.047Z,5.95
2023-04-18T12:58:11.767Z,5.18
2023-04-18T13:00:39.626Z,5.88
2023-04-18T13:03:08.251Z,5.07
2023-04-18T13:05:37.423Z,6.70
2023-04-18T13:08:16.216Z,6.03
2023-04-18T13:10:47.584Z,5.38
2023-04-18T13:13:15.546Z,7.05
2023-04-18T13:15:43.322Z,5.13
2023-04-18T13:18:11.123Z,6.97
2023-04-18T13:20:38.899Z,5.55
2023-04-18T13:23:06.641Z,5.80
2023-04-18T13:25:34.394Z,7.07
2023-04-18T13:28:03.874Z,5.53
2023-04-18T13:30:32.077Z,5.50
2023-04-18T13:32:59.940Z,7.47
2023-04-18T13:35:27.848Z,6.25
2023-04-18T13:37:56.011Z,4.43
2023-04-18T13:40:24.264Z,4.45
2023-04-18T13:42:52.375Z,6.35
2023-04-18T13:45:21.721Z,9.52
2023-04-18T13:47:49.467Z,6.10
2023-04-18T13:50:17.401Z,5.53
2023-04-18T13:52:46.216Z,4.25
2023-04-18T13:55:13.966Z,8.80
2023-04-18T13:57:41.665Z,6.05
2023-04-18T14:00:13.632Z,4.47
2023-04-18T14:02:42.870Z,4.85
2023-04-18T14:05:11.435Z,6.85
2023-04-18T14:07:39.557Z,3.22
2023-04-18T14:10:08.453Z,4.38
2023-04-18T14:12:36.746Z,3.83
2023-04-18T14:15:05.005Z,3.72
2023-04-18T14:17:32.874Z,5.38
2023-04-18T14:20:02.356Z,5.88
2023-04-18T14:22:30.316Z,4.78
2023-04-18T14:24:58.188Z,6.10
2023-04-18T14:27:26.689Z,4.13
2023-04-18T14:29:54.592Z,4.63
2023-04-18T14:32:22.376Z,4.05
2023-04-18T14:34:50.451Z,3.92
2023-04-18T14:37:19.646Z,4.05
2023-04-18T14:39:48.899Z,3.40
2023-04-18T14:42:17.104Z,3.83
2023-04-18T14:44:44.949Z,3.75
2023-04-18T14:47:12.725Z,3.97
2023-04-18T14:49:40.467Z,4.53
2023-04-18T14:52:08.587Z,5.25
2023-04-18T14:54:37.769Z,6.68
2023-04-18T14:57:08.136Z,10.45
2023-04-18T14:59:35.934Z,6.78
2023-04-18T15:02:03.758Z,8.25
2023-04-18T15:04:31.880Z,7.78
2023-04-18T15:07:00.131Z,6.03
2023-04-18T15:09:28.226Z,7.22
2023-04-18T15:11:58.328Z,7.25
2023-04-18T15:14:26.159Z,10.10
2023-04-18T15:16:53.964Z,6.57
2023-04-18T15:19:21.683Z,6.75
2023-04-18T15:21:49.518Z,6.30
2023-04-18T15:24:17.312Z,5.78
2023-04-18T15:26:45.345Z,6.32
2023-04-18T15:29:14.599Z,7.72
2023-04-18T15:31:42.380Z,6.75
2023-04-18T15:34:10.536Z,6.90
2023-04-18T15:36:38.537Z,6.88
2023-04-18T15:39:06.813Z,6.82
2023-04-18T15:41:36.334Z,6.38
2023-04-18T15:44:06.033Z,6.13
2023-04-18T15:46:37.478Z,7.22
2023-04-18T15:49:05.436Z,7.60
2023-04-18T15:51:33.238Z,6.60
2023-04-18T15:54:01.177Z,5.78
2023-04-18T15:56:30.099Z,6.07
2023-04-18T15:58:59.704Z,6.40
2023-04-18T16:01:27.762Z,7.32
2023-04-18T16:03:57.212Z,6.35
2023-04-18T16:06:25.055Z,7.45
2023-04-18T16:08:52.839Z,7.10
2023-04-18T16:11:21.684Z,7.53
2023-04-18T16:13:51.711Z,9.25
2023-04-18T16:16:22.741Z,8.75
2023-04-18T16:18:50.625Z,10.05
2023-04-18T16:21:19.883Z,8.23
2023-04-18T16:23:47.962Z,7.90
2023-04-18T16:26:15.842Z,8.80
2023-04-18T16:28:43.637Z,8.27
2023-04-18T16:31:11.588Z,9.88
2023-04-18T16:33:39.686Z,9.13
2023-04-18T16:36:07.556Z,8.88
2023-04-18T16:38:36.762Z,8.48
2023-04-18T16:41:04.548Z,9.10
2023-04-18T16:43:36.326Z,9.50
2023-04-18T16:46:04.580Z,7.93
2023-04-18T16:48:32.587Z,7.78
2023-04-18T16:51:00.415Z,6.65
2023-04-18T16:53:28.159Z,6.45
2023-04-18T16:55:57.661Z,9.45
2023-04-18T16:58:25.479Z,9.73
2023-04-18T17:00:53.889Z,6.63
2023-04-18T17:03:21.754Z,9.50
2023-04-18T17:05:49.702Z,7.18
2023-04-18T17:08:17.776Z,7.60
2023-04-18T17:10:45.610Z,9.82
2023-04-18T17:13:14.706Z,8.63
2023-04-18T17:15:42.947Z,15.88
2023-04-18T17:18:10.814Z,7.32
2023-04-18T17:20:38.660Z,10.05
2023-04-18T17:23:06.618Z,8.07
2023-04-18T17:25:34.376Z,7.50
2023-04-18T17:28:02.323Z,7.50
2023-04-18T17:30:31.657Z,6.22
2023-04-18T17:32:59.544Z,7.82
2023-04-18T17:35:27.316Z,9.35
2023-04-18T17:37:55.428Z,7.18
2023-04-18T17:40:23.345Z,8.07
2023-04-18T17:42:51.063Z,7.57
2023-04-18T17:45:20.410Z,6.57
2023-04-18T17:47:50.889Z,12.60
2023-04-18T17:50:19.106Z,7.47
2023-04-18T17:52:46.842Z,8.35
2023-04-18T17:55:14.930Z,10.40
2023-04-18T17:57:42.835Z,7.72
2023-04-18T18:00:13.522Z,8.25
2023-04-18T18:02:42.318Z,8.35
2023-04-18T18:05:14.248Z,8.27
2023-04-18T18:07:43.608Z,6.68
2023-04-18T18:10:12.447Z,8.02
2023-04-18T18:12:40.995Z,8.88
2023-04-18T18:15:09.920Z,8.73
2023-04-18T18:17:37.696Z,8.60
2023-04-18T18:20:09.886Z,8.20
2023-04-18T18:25:07.995Z,8.25
2023-04-18T18:27:36.067Z,7.78
2023-04-18T18:30:04.067Z,10.05
2023-04-18T18:32:31.971Z,10.00
2023-04-18T18:34:59.806Z,9.32
2023-04-18T18:37:27.672Z,13.30
2023-04-18T18:39:57.230Z,7.97
2023-04-18T18:42:25.026Z,11.40
2023-04-18T18:44:52.741Z,11.27
2023-04-18T18:47:20.705Z,7.05
2023-04-18T18:49:48.786Z,8.30
2023-04-18T18:52:16.895Z,8.32
2023-04-18T18:54:44.647Z,9.10
2023-04-18T18:57:13.844Z,10.65
2023-04-18T18:59:42.546Z,28.35
2023-04-18T19:02:10.492Z,12.20
2023-04-18T19:04:38.407Z,10.63
2023-04-18T19:07:07.262Z,8.98
2023-04-18T19:09:36.790Z,9.68
2023-04-18T19:12:04.683Z,9.05
2023-04-18T19:14:33.967Z,9.13
2023-04-18T19:17:01.864Z,9.45
2023-04-18T19:19:29.779Z,9.38
2023-04-18T19:21:57.931Z,9.82
2023-04-18T19:24:26.060Z,10.63
2023-04-18T19:26:53.976Z,9.25
2023-04-18T19:29:23.534Z,13.32
2023-04-18T19:31:52.730Z,9.68
2023-04-18T19:34:21.865Z,11.10
2023-04-18T19:36:49.612Z,9.30
2023-04-18T19:39:18.202Z,9.55
2023-04-18T19:41:46.136Z,9.50
2023-04-18T19:44:13.921Z,7.80
2023-04-18T19:46:41.793Z,10.60
2023-04-18T19:49:11.093Z,9.35
2023-04-18T19:51:40.251Z,11.10
2023-04-18T19:54:08.130Z,9.82
2023-04-18T19:56:35.925Z,25.08
2023-04-18T19:59:06.029Z,12.95
2023-04-18T20:01:34.194Z,11.32
2023-04-18T20:04:02.250Z,10.40
2023-04-18T20:06:32.086Z,10.63
2023-04-18T20:08:59.797Z,9.85
2023-04-18T20:11:27.783Z,14.05
2023-04-18T20:13:56.575Z,12.32
2023-04-18T20:16:24.671Z,10.55
2023-04-18T20:18:54.851Z,10.60
2023-04-18T20:21:22.949Z,14.23
2023-04-18T20:23:52.139Z,9.20
2023-04-18T20:26:19.962Z,31.15
2023-04-18T20:28:48.079Z,13.10
2023-04-18T20:31:15.840Z,9.25
2023-04-18T20:33:43.621Z,11.90
2023-04-18T20:36:11.384Z,9.98
2023-04-18T20:38:40.285Z,9.82
2023-04-18T20:44:43.861Z,11.05
2023-04-18T20:47:14.745Z,11.60
2023-04-18T20:50:22.694Z,10.32
2023-04-18T20:52:50.413Z,11.07
2023-04-18T20:55:18.366Z,10.80
2023-04-18T20:57:47.541Z,11.73
2023-04-18T21:00:16.009Z,9.55
2023-04-18T21:02:45.532Z,10.48
2023-04-18T21:05:13.566Z,10.25
2023-04-18T21:07:42.624Z,12.90
2023-04-18T21:10:12.405Z,11.43
2023-04-18T21:12:40.163Z,10.73
2023-04-18T21:15:10.623Z,11.73
2023-04-18T21:17:38.492Z,11.00
2023-04-18T21:20:08.137Z,13.18
2023-04-18T21:22:38.476Z,12.65
2023-04-18T21:25:07.838Z,13.25
2023-04-18T21:27:38.380Z,10.70
2023-04-18T21:30:07.589Z,11.73
2023-04-18T21:32:36.827Z,11.65
2023-04-18T21:35:04.945Z,13.45
2023-04-18T21:37:32.823Z,10.60
2023-04-18T21:40:01.507Z,11.80
2023-04-18T21:42:29.357Z,10.70
2023-04-18T21:44:57.059Z,11.45
2023-04-18T21:47:25.905Z,19.60
2023-04-18T21:49:55.620Z,14.13
2023-04-18T21:52:23.433Z,14.50
2023-04-18T21:54:51.284Z,13.30
2023-04-18T21:57:19.097Z,13.77
2023-04-18T21:59:46.780Z,11.82
2023-04-18T22:02:15.013Z,15.07
2023-04-18T22:04:44.492Z,12.30
2023-04-18T22:07:15.489Z,10.65
2023-04-18T22:09:44.757Z,12.35
2023-04-18T22:12:14.033Z,12.50
2023-04-18T22:14:42.087Z,12.90
2023-04-18T22:17:09.991Z,12.20
2023-04-18T22:19:37.757Z,12.40
2023-04-18T22:22:05.939Z,12.57
2023-04-18T22:24:35.081Z,12.82
2023-04-18T22:27:02.928Z,11.70
2023-04-18T22:29:30.655Z,13.35
2023-04-18T22:31:58.749Z,13.23
2023-04-18T22:34:26.506Z,11.45
2023-04-18T22:36:54.600Z,13.07
2023-04-18T22:39:22.404Z,11.82
2023-04-18T22:41:51.542Z,12.55
2023-04-18T22:44:19.312Z,14.27
2023-04-18T22:46:48.164Z,14.27
2023-04-18T22:49:17.955Z,14.55
2023-04-18T22:51:46.374Z,13.55
2023-04-18T22:54:14.219Z,13.30
2023-04-18T22:56:42.551Z,12.45
2023-04-18T22:59:11.686Z,14.68
2023-04-18T23:01:39.887Z,12.88
2023-04-18T23:04:08.042Z,11.98
2023-04-18T23:06:37.175Z,14.90
2023-04-18T23:09:05.378Z,16.73
2023-04-18T23:11:33.259Z,11.68
2023-04-18T23:14:01.263Z,14.95
2023-04-18T23:16:30.648Z,12.73
2023-04-18T23:18:58.411Z,12.82
2023-04-18T23:21:26.340Z,13.30
2023-04-18T23:23:54.131Z,14.32
2023-04-18T23:26:22.228Z,14.23
2023-04-18T23:28:50.131Z,13.85
2023-04-18T23:31:18.239Z,13.50
2023-04-18T23:33:47.804Z,12.38
2023-04-18T23:36:15.587Z,13.70
2023-04-18T23:38:43.942Z,14.02
2023-04-18T23:41:12.130Z,13.60
2023-04-18T23:43:40.265Z,15.27
2023-04-18T23:46:08.024Z,13.60
2023-04-18T23:48:35.935Z,14.02
2023-04-18T23:51:05.222Z,12.20
2023-04-18T23:53:32.989Z,15.73
2023-04-18T23:56:00.693Z,13.43
2023-04-18T23:58:28.479Z,13.25
